Fulton County Airport Brown Field
KFTY : now visible

Aeroporto :











RITROVATECI SU...

 
LOGIN :

Iscrizione | Disclaimer

   EN    FR    IT 

 









Sommario :    VFR   VFR Marginale   IFR   IFR Intensivo   IFR Molto Intensivo
Visibilità : 
Base nubi : 
>= 8 km
>= 3000ft
5 / 8 km
1000 / 3000 ft
1500m / 5 km
500 / 1000 ft
800 / 1500m
200 / 500 ft
< 800m
< 200 ft
Simboli :   Temporali  Nebbia  Neve Forte  Precipitazioni Forti  Vento > 20 kt






- Altitudine del aeroporto : 841 ft


KFTY - Fulton County Brown Field

ULTIMO METAR :
  • 181919Z 12003KT 6SM RA SCT029 BKN080 OVC095 09/06 A3022 RMK AO2 RAB1856 P0004 T00940061

METARs OBSOLETI :
  • 181903Z 19004KT 7SM RA BKN029 BKN041 OVC049 09/06 A3024 RMK AO2 RAB1856 P0001 T00940056
  • 181853Z 18005KT 10SM SCT029 OVC041 09/05 A3025 RMK AO2 RAB16E51 SLP243 P0000 T00940050
  • 181753Z 07003KT 10SM OVC034 08/04 A3030 RMK AO2 RAB01E37 SLP261 P0002 60002 T00830044 10089 20061 56021
  • 181736Z 00000KT 10SM -RA SCT021 OVC034 08/04 A3032 RMK AO2 RAB01 P0002 T00830044
  • 181653Z 14007KT 10SM FEW023 OVC045 09/02 A3032 RMK AO2 PRESFR SLP268 T00890017

TAF KFTY
Valido dal 18 a 18 ore il 19 a 18 ore UTC


181739Z 1818/1918 15007KT P6SM -SHRA BKN020 OVC040
TEMPO 1818/1821 4SM -SHRA BR OVC015
FM182100 17008KT 5SM -SHRA BR OVC009
FM190200 22008KT 4SM -SHRA BR OVC007
FM190800 31011G20KT P6SM SCT010 OVC030
FM191200 31012G20KT P6SM SCT040 SCT250



MetMap, La meteo Aeronautica in un colpo d'occhio ! - Copyright ORBIFLY Dicembre 2007 - Disclaimer

ORBIFLY MET'MAP TEAM :

Programmazione e sviluppo : Alexandra Zaïnal
Concezione : Baudouin d'Aumeries
Aiuto per la programmazione : Marc-Olivier Méhu
Supporto tecnico e logistico : Manuel Goepfert
Aiuto per la traduzione : Arnaldo La Scala

Contatto : metmap@orbifly.com




FONTI E CREDITI :

   NOAA       Earth
Advisory